createdAt,value
2022-09-14T00:00:35.602Z,75.59
2022-09-14T00:03:37.906Z,75.55
2022-09-14T00:06:40.415Z,76.04
2022-09-14T00:09:42.331Z,74.92
2022-09-14T00:12:44.154Z,74.79
2022-09-14T00:15:46.343Z,75.33
2022-09-14T00:18:52.697Z,75.93
2022-09-14T00:21:57.207Z,75.25
2022-09-14T00:24:59.199Z,75.87
2022-09-14T00:28:01.259Z,75.58
2022-09-14T00:31:04.552Z,75.96
2022-09-14T00:34:09.184Z,76.36
2022-09-14T00:37:11.561Z,76.47
2022-09-14T00:40:14.528Z,76.44
2022-09-14T00:43:16.614Z,76.48
2022-09-14T00:46:18.663Z,76.77
2022-09-14T00:49:22.113Z,76.63
2022-09-14T00:52:27.110Z,76.69
2022-09-14T00:55:29.184Z,76.55
2022-09-14T00:58:31.348Z,77.26
2022-09-14T01:01:33.179Z,77.35
2022-09-14T01:04:35.536Z,76.82
2022-09-14T01:07:40.245Z,77.44
2022-09-14T01:10:52.947Z,77.70
2022-09-14T01:14:08.127Z,77.74
2022-09-14T01:17:18.415Z,78.50
2022-09-14T01:20:32.452Z,77.93
2022-09-14T01:23:49.752Z,78.60
2022-09-14T01:26:59.874Z,77.71
2022-09-14T01:30:14.261Z,77.96
2022-09-14T01:33:21.078Z,77.94
2022-09-14T01:36:23.568Z,78.25
2022-09-14T01:39:27.422Z,78.05
2022-09-14T01:42:29.522Z,77.58
2022-09-14T01:45:34.958Z,77.71
2022-09-14T01:48:46.461Z,78.90
2022-09-14T01:51:51.017Z,78.86
2022-09-14T01:54:58.122Z,78.59
2022-09-14T01:58:09.448Z,79.28
2022-09-14T02:01:17.365Z,79.77
2022-09-14T02:04:26.284Z,80.24
2022-09-14T02:07:28.174Z,79.57
2022-09-14T02:10:30.413Z,79.88
2022-09-14T02:13:33.156Z,79.95
2022-09-14T02:16:35.030Z,79.60
2022-09-14T02:19:42.050Z,79.52
2022-09-14T02:22:43.799Z,82.43
2022-09-14T02:25:47.111Z,79.71
2022-09-14T02:28:49.343Z,79.81
2022-09-14T02:32:07.538Z,80.04
2022-09-14T02:35:10.210Z,79.61
2022-09-14T02:38:46.049Z,82.54
2022-09-14T02:42:29.669Z,82.57
2022-09-14T02:45:50.807Z,79.96
2022-09-14T02:49:08.672Z,80.86
2022-09-14T02:52:23.699Z,81.67
2022-09-14T02:55:30.088Z,80.77
2022-09-14T02:58:36.974Z,79.82
2022-09-14T03:01:38.897Z,79.92
2022-09-14T03:04:41.329Z,80.00
2022-09-14T03:07:43.655Z,80.46
2022-09-14T03:10:45.471Z,80.56
2022-09-14T03:13:47.521Z,80.80
2022-09-14T03:16:49.432Z,80.21
2022-09-14T03:19:51.353Z,79.93
2022-09-14T03:22:53.433Z,80.31
2022-09-14T03:25:55.542Z,80.86
2022-09-14T03:28:58.868Z,81.27
2022-09-14T03:32:00.648Z,80.27
2022-09-14T03:35:02.588Z,80.29
2022-09-14T03:38:04.899Z,81.80
2022-09-14T03:41:10.124Z,81.61
2022-09-14T03:44:12.439Z,82.03
2022-09-14T03:47:14.367Z,81.57
2022-09-14T03:50:18.245Z,81.39
2022-09-14T03:53:20.133Z,81.88
2022-09-14T03:56:23.615Z,82.12
2022-09-14T03:59:25.639Z,81.70
2022-09-14T04:02:28.824Z,81.76
2022-09-14T04:05:30.977Z,82.06
2022-09-14T04:08:41.415Z,82.37
2022-09-14T04:11:43.200Z,82.14
2022-09-14T04:14:45.757Z,82.10
2022-09-14T04:17:47.993Z,81.70
2022-09-14T04:21:05.727Z,82.65
2022-09-14T04:24:15.548Z,81.40
2022-09-14T04:27:18.250Z,82.04
2022-09-14T04:30:20.299Z,81.97
2022-09-14T04:33:22.332Z,82.24
2022-09-14T04:36:28.601Z,82.03
2022-09-14T04:39:30.551Z,82.20
2022-09-14T04:42:32.976Z,81.52
2022-09-14T04:45:35.691Z,80.56
2022-09-14T04:48:37.978Z,80.73
2022-09-14T04:51:39.972Z,80.87
2022-09-14T04:54:42.237Z,80.75
2022-09-14T04:57:44.375Z,80.69
2022-09-14T05:00:46.914Z,80.54
2022-09-14T05:03:49.763Z,81.27
2022-09-14T05:06:52.047Z,80.85
2022-09-14T05:09:57.324Z,82.58
2022-09-14T05:12:59.422Z,82.96
2022-09-14T05:16:08.911Z,81.48
2022-09-14T05:19:15.567Z,81.41
2022-09-14T05:22:17.623Z,81.54
2022-09-14T05:25:19.591Z,81.49
2022-09-14T05:28:21.781Z,80.90
2022-09-14T05:31:25.280Z,81.26
2022-09-14T05:34:27.467Z,80.74
2022-09-14T05:37:29.807Z,80.69
2022-09-14T05:40:32.005Z,81.62
2022-09-14T05:43:34.591Z,81.89
2022-09-14T05:46:36.925Z,81.87
2022-09-14T05:49:39.552Z,81.50
2022-09-14T05:52:41.659Z,81.64
2022-09-14T05:55:44.566Z,81.33
2022-09-14T05:58:47.386Z,81.70
2022-09-14T06:01:49.163Z,81.74
2022-09-14T06:04:51.386Z,82.89
2022-09-14T06:07:54.287Z,81.40
2022-09-14T06:10:56.362Z,81.55
2022-09-14T06:13:59.191Z,80.97
2022-09-14T06:17:01.615Z,81.03
2022-09-14T06:20:05.338Z,82.67
2022-09-14T06:23:07.598Z,83.57
2022-09-14T06:26:10.082Z,82.70
2022-09-14T06:29:12.041Z,82.24
2022-09-14T06:32:14.065Z,83.62
2022-09-14T06:35:16.549Z,83.82
2022-09-14T06:38:18.671Z,82.48
2022-09-14T06:41:24.037Z,81.02
2022-09-14T06:44:26.408Z,81.53
2022-09-14T06:47:32.597Z,82.33
2022-09-14T06:50:34.968Z,81.58
2022-09-14T06:53:36.998Z,81.72
2022-09-14T06:56:41.321Z,81.49
2022-09-14T06:59:43.767Z,80.16
2022-09-14T07:02:45.891Z,79.54
2022-09-14T07:05:48.159Z,79.28
2022-09-14T07:08:51.443Z,79.15
2022-09-14T07:11:54.821Z,77.67
2022-09-14T07:14:56.819Z,77.25
2022-09-14T07:17:59.465Z,76.46
2022-09-14T07:21:22.198Z,75.70
2022-09-14T07:24:24.921Z,75.80
2022-09-14T07:27:27.058Z,75.16
2022-09-14T07:30:28.882Z,74.96
2022-09-14T07:33:31.377Z,74.78
2022-09-14T07:36:35.751Z,74.20
2022-09-14T07:39:37.655Z,73.31
2022-09-14T07:42:39.582Z,73.42
2022-09-14T07:45:42.205Z,72.59
2022-09-14T07:48:44.576Z,72.04
2022-09-14T07:51:46.598Z,72.19
2022-09-14T07:54:48.832Z,72.26
2022-09-14T07:57:56.431Z,72.60
2022-09-14T08:01:04.953Z,72.19
2022-09-14T08:04:08.243Z,72.26
2022-09-14T08:07:10.433Z,71.86
2022-09-14T08:10:12.616Z,71.03
2022-09-14T08:13:15.518Z,70.37
2022-09-14T08:16:19.442Z,70.27
2022-09-14T08:19:22.029Z,70.07
2022-09-14T08:22:23.793Z,69.23
2022-09-14T08:25:26.735Z,68.63
2022-09-14T08:28:28.701Z,69.34
2022-09-14T08:31:30.987Z,69.03
2022-09-14T08:34:33.567Z,68.96
2022-09-14T08:37:40.767Z,68.52
2022-09-14T08:40:45.404Z,68.03
2022-09-14T08:43:47.447Z,68.78
2022-09-14T08:46:54.193Z,67.29
2022-09-14T08:50:11.355Z,66.18
2022-09-14T08:53:13.255Z,65.06
2022-09-14T08:56:42.583Z,66.86
2022-09-14T09:00:09.045Z,70.94
2022-09-14T09:03:21.323Z,70.49
2022-09-14T09:06:35.424Z,71.53
2022-09-14T09:09:45.825Z,72.15
2022-09-14T09:12:52.136Z,72.65
2022-09-14T09:15:56.062Z,72.89
2022-09-14T09:19:07.920Z,72.10
2022-09-14T09:22:15.294Z,73.10
2022-09-14T09:25:23.667Z,72.86
2022-09-14T09:28:27.348Z,73.23
2022-09-14T09:31:38.645Z,72.05
2022-09-14T09:35:21.303Z,73.18
2022-09-14T09:38:35.685Z,72.11
2022-09-14T09:41:46.200Z,71.53
2022-09-14T09:45:02.443Z,73.13
2022-09-14T09:48:11.392Z,74.08
2022-09-14T09:51:32.795Z,69.46
2022-09-14T09:54:34.808Z,70.54
2022-09-14T09:57:37.330Z,70.55
2022-09-14T10:00:56.177Z,68.73
2022-09-14T10:04:10.431Z,68.58
2022-09-14T10:07:22.462Z,69.76
2022-09-14T10:10:40.069Z,68.59
2022-09-14T10:13:47.221Z,68.04
2022-09-14T10:16:52.598Z,67.16
2022-09-14T10:19:55.357Z,67.03
2022-09-14T10:23:18.970Z,67.62
2022-09-14T10:26:24.938Z,68.55
2022-09-14T10:29:38.911Z,65.75
2022-09-14T10:32:43.251Z,68.05
2022-09-14T10:35:57.068Z,67.63
2022-09-14T10:38:59.546Z,69.63
2022-09-14T10:42:05.058Z,70.19
2022-09-14T10:45:30.293Z,71.03
2022-09-14T10:48:32.415Z,73.66
2022-09-14T10:51:42.737Z,76.55
2022-09-14T10:54:59.909Z,77.13
2022-09-14T10:58:17.309Z,75.77
2022-09-14T11:01:40.873Z,75.17
2022-09-14T11:04:43.364Z,74.39
2022-09-14T11:07:52.877Z,73.31
2022-09-14T11:11:16.799Z,75.57
2022-09-14T11:14:31.547Z,75.45
2022-09-14T11:18:02.531Z,74.54
2022-09-14T11:21:40.026Z,72.97
2022-09-14T11:24:54.051Z,72.66
2022-09-14T11:28:02.236Z,72.53
2022-09-14T11:31:15.525Z,73.73
2022-09-14T11:34:55.063Z,72.69
2022-09-14T11:38:03.691Z,73.14
2022-09-14T11:41:18.464Z,73.37
2022-09-14T11:44:31.381Z,74.54
2022-09-14T11:47:39.118Z,75.20
2022-09-14T11:50:43.120Z,74.98
2022-09-14T11:53:46.780Z,73.50
2022-09-14T11:56:51.026Z,75.09
2022-09-14T11:59:55.997Z,75.12
2022-09-14T12:03:01.183Z,75.17
2022-09-14T12:06:34.311Z,75.07
2022-09-14T12:09:41.204Z,76.93
2022-09-14T12:12:55.470Z,77.01
2022-09-14T12:16:01.413Z,78.44
2022-09-14T12:19:12.634Z,79.14
2022-09-14T12:22:33.977Z,81.45
2022-09-14T12:25:38.422Z,80.21
2022-09-14T12:28:52.994Z,82.11
2022-09-14T12:31:55.144Z,80.61
2022-09-14T12:35:36.124Z,81.42
2022-09-14T12:38:38.446Z,80.18
2022-09-14T12:41:40.372Z,80.42
2022-09-14T12:44:44.178Z,81.38
2022-09-14T12:47:51.822Z,80.96
2022-09-14T12:50:55.100Z,80.63
2022-09-14T12:54:09.699Z,81.23
2022-09-14T12:57:18.143Z,78.16
2022-09-14T13:00:20.958Z,79.75
2022-09-14T13:03:49.891Z,81.52
2022-09-14T13:06:52.898Z,83.22
2022-09-14T13:09:56.411Z,82.64
2022-09-14T13:13:01.194Z,81.03
2022-09-14T13:16:06.423Z,78.20
2022-09-14T13:19:20.212Z,78.58
2022-09-14T13:22:28.029Z,77.25
2022-09-14T13:25:33.704Z,80.17
2022-09-14T13:28:36.843Z,79.76
2022-09-14T13:31:40.127Z,77.49
2022-09-14T13:34:42.577Z,77.60
2022-09-14T13:37:48.326Z,78.99
2022-09-14T13:40:53.208Z,81.12
2022-09-14T13:43:57.408Z,81.15
2022-09-14T13:47:03.911Z,81.53
2022-09-14T13:50:07.756Z,80.60
2022-09-14T13:53:38.180Z,82.19
2022-09-14T13:56:40.253Z,79.63
2022-09-14T14:00:09.541Z,80.31
2022-09-14T14:03:40.358Z,79.51
2022-09-14T14:06:42.808Z,79.80
2022-09-14T14:09:51.008Z,78.42
2022-09-14T14:12:53.385Z,80.72
2022-09-14T14:16:17.704Z,81.23
2022-09-14T14:19:30.719Z,79.23
2022-09-14T14:22:39.027Z,80.60
2022-09-14T14:25:46.368Z,79.04
2022-09-14T14:28:48.980Z,80.21
2022-09-14T14:31:51.495Z,80.94
2022-09-14T14:34:53.951Z,82.34
2022-09-14T14:37:56.860Z,82.14
2022-09-14T14:40:59.673Z,83.72
2022-09-14T14:44:02.224Z,85.39
2022-09-14T14:47:05.748Z,85.68
2022-09-14T14:50:19.309Z,84.89
2022-09-14T14:53:25.754Z,84.76
2022-09-14T14:56:28.372Z,85.99
2022-09-14T14:59:31.226Z,85.06
2022-09-14T15:02:33.197Z,85.91
2022-09-14T15:05:35.631Z,85.57
2022-09-14T15:08:38.335Z,86.71
2022-09-14T15:11:43.268Z,86.86
2022-09-14T15:14:45.553Z,85.64
2022-09-14T15:17:48.218Z,86.13
2022-09-14T15:20:50.509Z,85.11
2022-09-14T15:23:52.802Z,86.75
2022-09-14T15:26:55.283Z,87.34
2022-09-14T15:29:58.450Z,86.39
2022-09-14T15:33:00.758Z,87.24
2022-09-14T15:36:03.696Z,86.17
2022-09-14T15:39:07.433Z,86.21
2022-09-14T15:42:09.771Z,86.86
2022-09-14T15:45:12.214Z,88.23
2022-09-14T15:48:16.046Z,86.56
2022-09-14T15:51:20.165Z,87.78
2022-09-14T15:54:23.758Z,87.17
2022-09-14T15:57:25.942Z,86.24
2022-09-14T16:00:28.323Z,86.64
2022-09-14T16:03:30.299Z,87.11
2022-09-14T16:06:33.099Z,87.23
2022-09-14T16:09:35.791Z,86.63
2022-09-14T16:12:37.845Z,86.37
2022-09-14T16:15:39.899Z,87.15
2022-09-14T16:18:42.678Z,87.37
2022-09-14T16:21:45.067Z,87.05
2022-09-14T16:24:47.897Z,88.91
2022-09-14T16:27:50.464Z,88.23
2022-09-14T16:30:52.530Z,88.16
2022-09-14T16:33:57.406Z,88.85
2022-09-14T16:36:59.607Z,88.19
2022-09-14T16:40:02.924Z,87.72
2022-09-14T16:43:05.795Z,86.57
2022-09-14T16:46:10.774Z,86.45
2022-09-14T16:49:13.233Z,86.36
2022-09-14T16:52:15.873Z,86.74
2022-09-14T16:55:18.231Z,86.38
2022-09-14T16:58:20.520Z,86.58
2022-09-14T17:01:28.840Z,85.83
2022-09-14T17:04:31.150Z,85.47
2022-09-14T17:07:33.182Z,86.07
2022-09-14T17:10:36.690Z,86.20
2022-09-14T17:13:39.048Z,88.16
2022-09-14T17:16:41.442Z,88.50
2022-09-14T17:19:45.382Z,87.42
2022-09-14T17:22:48.351Z,87.58
2022-09-14T17:25:51.307Z,88.23
2022-09-14T17:28:57.167Z,87.93
2022-09-14T17:31:59.824Z,87.73
2022-09-14T17:35:03.237Z,87.46
2022-09-14T17:38:06.761Z,86.92
2022-09-14T17:41:13.139Z,87.33
2022-09-14T17:44:16.802Z,86.67
2022-09-14T17:47:19.199Z,86.34
2022-09-14T17:50:22.101Z,87.28
2022-09-14T17:53:24.901Z,86.71
2022-09-14T17:56:28.911Z,87.37
2022-09-14T17:59:31.055Z,87.37
2022-09-14T18:02:33.520Z,86.81
2022-09-14T18:05:36.169Z,86.24
2022-09-14T18:08:39.500Z,86.01
2022-09-14T18:11:42.928Z,87.18
2022-09-14T18:14:45.088Z,87.74
2022-09-14T18:17:47.323Z,87.35
2022-09-14T18:20:49.635Z,87.71
2022-09-14T18:23:52.941Z,87.15
2022-09-14T18:26:55.061Z,87.79
2022-09-14T18:29:58.028Z,87.24
2022-09-14T18:33:00.525Z,86.07
2022-09-14T18:36:04.596Z,86.58
2022-09-14T18:39:06.879Z,87.48
2022-09-14T18:42:09.281Z,87.36
2022-09-14T18:45:11.664Z,87.43
2022-09-14T18:48:14.437Z,87.31
2022-09-14T18:51:22.648Z,86.96
2022-09-14T18:54:27.843Z,86.99
2022-09-14T18:57:30.885Z,87.80
2022-09-14T19:00:35.359Z,87.65
2022-09-14T19:03:39.887Z,87.94
2022-09-14T19:06:44.314Z,86.77
2022-09-14T19:09:47.043Z,86.64
2022-09-14T19:12:49.373Z,86.76
2022-09-14T19:15:51.373Z,86.80
2022-09-14T19:18:53.936Z,87.29
2022-09-14T19:21:56.700Z,88.39
2022-09-14T19:25:00.009Z,88.17
2022-09-14T19:28:02.785Z,88.80
2022-09-14T19:31:14.109Z,88.30
2022-09-14T19:34:20.491Z,88.22
2022-09-14T19:37:25.058Z,87.44
2022-09-14T19:40:30.679Z,88.09
2022-09-14T19:43:34.747Z,88.31
2022-09-14T19:46:39.823Z,87.86
2022-09-14T19:49:42.577Z,87.52
2022-09-14T19:52:46.341Z,87.92
2022-09-14T19:55:48.552Z,87.49
2022-09-14T19:58:52.692Z,87.93
2022-09-14T20:01:54.885Z,87.75
2022-09-14T20:04:57.617Z,87.89
2022-09-14T20:07:59.694Z,87.39
2022-09-14T20:11:06.189Z,87.50
2022-09-14T20:14:12.458Z,87.87
2022-09-14T20:17:14.678Z,88.10
2022-09-14T20:20:17.345Z,87.53
2022-09-14T20:23:19.479Z,87.89
2022-09-14T20:26:21.750Z,88.26
2022-09-14T20:29:25.118Z,88.39
2022-09-14T20:32:27.175Z,88.47
2022-09-14T20:35:29.941Z,88.12
2022-09-14T20:38:32.440Z,88.54
2022-09-14T20:41:35.698Z,89.61
2022-09-14T20:44:37.781Z,89.44
2022-09-14T20:47:39.697Z,88.56
2022-09-14T20:50:51.858Z,90.49
2022-09-14T20:53:56.426Z,91.15
2022-09-14T20:57:03.512Z,91.43
2022-09-14T21:00:07.401Z,89.96
2022-09-14T21:03:11.040Z,89.51
2022-09-14T21:06:15.652Z,89.67
2022-09-14T21:09:18.535Z,93.35
2022-09-14T21:12:20.582Z,95.85
2022-09-14T21:15:22.686Z,98.51
2022-09-14T21:18:25.047Z,100.00
2022-09-14T21:21:27.551Z,100.00
2022-09-14T21:24:31.267Z,100.00
2022-09-14T21:27:33.208Z,99.46
2022-09-14T21:30:35.551Z,99.50
2022-09-14T21:33:40.676Z,100.00
2022-09-14T21:36:47.036Z,96.30
2022-09-14T21:39:48.820Z,94.85
2022-09-14T21:42:50.761Z,94.38
2022-09-14T21:45:53.319Z,95.35
2022-09-14T21:48:56.144Z,94.39
2022-09-14T21:51:58.098Z,94.03
2022-09-14T21:54:59.995Z,93.79
2022-09-14T21:58:01.978Z,95.42
2022-09-14T22:01:03.910Z,97.49
2022-09-14T22:04:07.015Z,97.99
2022-09-14T22:07:08.910Z,97.57
2022-09-14T22:10:11.046Z,95.81
2022-09-14T22:13:12.871Z,94.89
2022-09-14T22:16:16.693Z,93.98
2022-09-14T22:19:22.058Z,95.17
2022-09-14T22:22:23.946Z,97.30
2022-09-14T22:25:25.997Z,98.78
2022-09-14T22:28:28.428Z,99.75
2022-09-14T22:31:30.224Z,100.00
2022-09-14T22:34:32.652Z,97.65
2022-09-14T22:37:34.467Z,97.47
2022-09-14T22:40:36.301Z,98.06
2022-09-14T22:43:38.887Z,97.64
2022-09-14T22:46:40.697Z,95.87
2022-09-14T22:49:42.548Z,95.41
2022-09-14T22:52:44.321Z,95.54
2022-09-14T22:55:46.779Z,96.24
2022-09-14T22:58:49.236Z,95.26
2022-09-14T23:01:53.353Z,94.11
2022-09-14T23:04:56.341Z,94.09
2022-09-14T23:07:58.402Z,94.26
2022-09-14T23:11:07.329Z,93.57
2022-09-14T23:14:09.031Z,93.50
2022-09-14T23:17:11.022Z,94.70
2022-09-14T23:20:12.828Z,93.71
2022-09-14T23:23:14.648Z,93.72
2022-09-14T23:26:16.427Z,93.44
2022-09-14T23:29:18.343Z,92.59
2022-09-14T23:32:20.100Z,94.77
2022-09-14T23:35:21.946Z,95.70
2022-09-14T23:38:24.314Z,95.78
2022-09-14T23:41:27.019Z,94.76
2022-09-14T23:44:28.859Z,93.91
2022-09-14T23:47:30.657Z,92.79
2022-09-14T23:50:32.319Z,94.34
2022-09-14T23:53:35.179Z,94.46
2022-09-14T23:56:38.665Z,93.71
2022-09-14T23:59:40.586Z,91.46
